Share

Akaska, SD

KSDHOVEN2 Elev 1877 ft | 45.24 °N, 99.78 °W | Change Station

Current weather conditions updated 7 minutes ago

Clear
Clear
36.7 °F
Feels Like 32 °F
N
5.4
Wind Variable Wind from NW
Gusts 6.3 mph
Sunrise 6:43 AM
Sunset 8:32 PM
Moon Waning Gibbous

Today is forecast to be Much Cooler than yesterday.

Pressure 30.13 in
Visibility 10.0 miles
Clouds Clear
Windchill 32 °F
Dew Point 22 °F
Humidity 54%
Rainfall 0.00 in
Snow Depth Not available.
UV 0 out of 16
Pollen 11.20 out of 12
Air Quality Not available.
Flu Activity Sporadic
METAR KMBG 211152Z AUTO 29003KT 10SM CLR 01/M04 A3012 RMK AO2 SLP202 T00061039 10089 21006 51019

More Conditions Fewer Conditions

Pressure 30.13 in
Visibility 10.0 miles
Clouds Clear
Windchill 32 °F
Dew Point 22 °F
Humidity 54%
Rainfall 0.00 in
Snow Depth Not available.
UV 0 out of 16
Pollen 11.20 out of 12
Air Quality Not available.
Flu Activity Sporadic
METAR KMBG 211152Z AUTO 29003KT 10SM CLR 01/M04 A3012 RMK AO2 SLP202 T00061039 10089 21006 51019

More Conditions Fewer Conditions

10-Day Weather Forecast

Almanac

Astronomy

Apr. 21, 2014 Rise Set
Actual Time 6:43 AM CDT 8:32 PM CDT
Civil Twilight 6:12 AM CDT 9:04 PM CDT
Nautical Twilight 5:34 AM CDT 9:42 PM CDT
Astronomical Twilight 4:52 AM CDT 10:24 PM CDT
Moon 2:08 AM CDT 12:08 PM CDT
Length of Visible Light 14h 51m
Length of Day
13h 49m
Tomorrow will be 2m 57s longer.
Waning Gibbous, 59% of the Moon is Illuminated
Today
Waning Gibbous
Apr 22
Last Quarter
Apr 29
New
May 6
First Quarter
May 14
Full

Today's Extremes

State Highs State Lows

Community

  • Snowy Robin
    Snowy Robin
  • Sun Pillar and Geese
    Sun Pillar and Geese
  • Showers on the Way
    Showers on the Way
  • Easter Morning Fog
    Easter Morning Fog
  • Easter Dance
    Easter Dance

WunderPhotos

Upload Photos

1,703,598 photos uploaded!

Nearby

Snow Depth

Station Depth Elevation
North Rapid Creek 17 in 6130 ft
Blind Park 18 in 6890 ft

Coastal Water Temperatures

Place Temperature
No Stations Reporting

Earthquake Activity

City Distance Mag. Time & Date
No recent earthquake activity has been reported nearby.
Minimum magnitude displayed is 2.5.

Nearby Weather Stations

Station Location Temp. Windchill Dew Point Humidity Wind Precip. Elev Updated Type
Hoven, SD 36.7 °F 32 °F 22 °F 54% NW  at  5.4 mph 0.00 in / hr 1877 ft 7:10 AM CDT Normal

Show More Stations Show Fewer Stations

What do you think?

We're not finished. Please let us know what you like, what you don't like, and what you are still missing.